Terminal Aerodrome Forecast
Issued by NWS

Home | Current Version | Previous Version | Text Only | Print | Product List | Glossary On
Versions: 1 2 3 4 5 6 7 8 9 10 11 12 13 14 15 16 17 18 19 20 21 22
000
FTUS43 KMQT 172339
TAFCMX
TAF
KCMX 172339Z 1800/1824 23003KT 3/4SM -SN BR OVC003
     FM180100 24003KT 1 1/2SM -DZ BR OVC003
     FM180300 30006KT 4SM -DZ BR OVC003
     FM180700 33008KT 5SM -DZ BR OVC010
     FM181200 34014G22KT P6SM OVC015
     FM182300 33013G21KT P6SM -SN OVC025=

USA.gov is the U.S. government's official web portal to all federal, state and local government web resources and services.